Elmira, Canada
Current Conditions -  °F | °C
As of 5:00 AM on Friday 19 Dec 2014 (Local Time) from CYKF Reporting Station
Overcast Overcast  
Wind Chill:   Ceiling: 1200
Heat Index: 21°   Visibility: 9mi
Dew Point: 18°   Wind: 14mph
Humidity: 86%   Direction: 320°NW
Pressure: 30.11"   Gusts: 20mph
Location:  43.6°N, 80.55°W
Report Text: CYKF 191000Z AUTO 32012G17KT 9SM OVC012 M06/M08 A3011 RMK SLP214
Loading
Personal Weather Stations






























Interactive Weather Map New forecast layout! Learn more

10-Day Weather Forecast

Advertisements
Track Severe Weather on mobile